Time;durP1;ratioP1;P1;durP2;ratioP2;P2;SDS_P1;SDS_P2;PMS_P1;PMS_P2;Temp;Humidity;BMP_temperature;BMP_pressure;BME280_temperature;BME280_humidity;BME280_pressure;Samples;Min_cycle;Max_cycle;Signal;HPM_P1;HPM_P2
2022/09/20 00:00:42;;;;;;;1.98;1.58;;;16.30;64.20;;;;;;5001657;28;20033;-80
2022/09/20 00:03:09;;;;;;;4.00;2.03;;;16.30;64.30;;;;;;5034997;28;20036;-80
2022/09/20 00:05:37;;;;;;;2.50;2.08;;;16.30;64.30;;;;;;5036268;28;20018;-81
2022/09/20 00:08:05;;;;;;;2.00;1.50;;;16.30;64.30;;;;;;5021084;28;20492;-80
2022/09/20 00:10:52;;;;;;;2.20;1.70;;;16.30;64.30;;;;;;5003433;28;20014;-80
2022/09/20 00:13:18;;;;;;;3.63;2.00;;;16.20;64.40;;;;;;4995110;28;20042;-80
2022/09/20 00:15:45;;;;;;;4.38;2.28;;;16.20;64.40;;;;;;4995869;28;20045;-81
2022/09/20 00:18:11;;;;;;;2.10;1.70;;;16.20;64.30;;;;;;4996336;28;20106;-80
2022/09/20 00:20:45;;;;;;;2.15;1.70;;;16.10;64.40;;;;;;4995764;28;20161;-80
2022/09/20 00:23:10;;;;;;;3.00;1.77;;;16.20;64.40;;;;;;4996307;28;20026;-80
2022/09/20 00:25:36;;;;;;;3.38;1.83;;;16.10;64.50;;;;;;4995053;28;20041;-80
2022/09/20 00:28:17;;;;;;;;;;;;;;;;;;;;;
2022/09/20 00:30:43;;;;;;;2.80;1.75;;;16.00;64.70;;;;;;4999454;28;20028;-81
2022/09/20 00:33:08;;;;;;;2.55;1.77;;;16.00;64.70;;;;;;4998659;28;20057;-81
2022/09/20 00:35:34;;;;;;;2.35;1.73;;;15.90;65.10;;;;;;4998489;28;20062;-81
2022/09/20 00:38:00;;;;;;;3.13;1.95;;;15.90;65.10;;;;;;4999342;28;20030;-80
2022/09/20 00:40:25;;;;;;;3.28;2.00;;;15.80;65.10;;;;;;4999866;28;20086;-80
2022/09/20 00:42:51;;;;;;;1.98;1.70;;;15.80;65.10;;;;;;4999136;28;20105;-80
2022/09/20 00:45:29;;;;;;;3.13;1.77;;;15.80;65.30;;;;;;4999629;28;20058;-80
2022/09/20 00:48:02;;;;;;;3.75;1.85;;;15.70;65.30;;;;;;4998974;28;20022;-80
2022/09/20 00:50:39;;;;;;;3.00;2.03;;;15.70;65.60;;;;;;4999041;28;20030;-81
2022/09/20 00:53:15;;;;;;;2.10;1.83;;;15.60;65.60;;;;;;5033669;28;20026;-80
2022/09/20 00:55:54;;;;;;;1.85;1.58;;;15.60;65.60;;;;;;5009622;28;20037;-80
2022/09/20 00:58:22;;;;;;;2.78;2.00;;;15.50;66.00;;;;;;4998071;28;20057;-81
2022/09/20 01:00:50;;;;;;;3.83;2.17;;;15.50;65.90;;;;;;4998902;28;20037;-81
2022/09/20 01:03:19;;;;;;;6.40;2.05;;;15.50;66.00;;;;;;5011047;28;20018;-81
2022/09/20 01:05:45;;;;;;;2.72;1.65;;;15.50;66.00;;;;;;5018531;28;20081;-81
2022/09/20 01:08:11;;;;;;;3.28;2.33;;;15.40;66.00;;;;;;5019065;28;20018;-80
2022/09/20 01:10:37;;;;;;;2.10;1.65;;;15.30;66.00;;;;;;5017161;28;20022;-81
2022/09/20 01:13:04;;;;;;;3.80;1.95;;;15.30;66.20;;;;;;5018143;28;20033;-80
2022/09/20 01:15:33;;;;;;;2.97;2.30;;;15.30;66.00;;;;;;5019001;28;20041;-80
2022/09/20 01:18:00;;;;;;;4.95;2.30;;;15.30;65.90;;;;;;5006585;28;20066;-81
2022/09/20 01:20:28;;;;;;;2.15;1.83;;;15.30;66.20;;;;;;4999337;28;20022;-81
2022/09/20 01:22:56;;;;;;;3.33;2.10;;;15.20;66.50;;;;;;4997120;28;20045;-80
2022/09/20 01:25:50;;;;;;;3.38;2.10;;;15.20;66.60;;;;;;5010241;28;20032;-80
2022/09/20 01:28:15;;;;;;;4.07;2.35;;;15.20;66.50;;;;;;5018023;28;20606;-80
2022/09/20 01:31:05;;;;;;;2.72;2.30;;;15.20;66.30;;;;;;5017753;28;20030;-80
2022/09/20 01:33:43;;;;;;;4.35;2.00;;;15.20;66.30;;;;;;5004342;28;20034;-80
2022/09/20 01:36:20;;;;;;;2.78;2.00;;;15.10;66.40;;;;;;4998494;28;20560;-80
2022/09/20 01:39:15;;;;;;;5.50;2.03;;;15.10;66.00;;;;;;4998385;28;20509;-80
2022/09/20 01:42:01;;;;;;;2.55;2.00;;;15.00;66.00;;;;;;4998732;28;20032;-81
2022/09/20 01:44:38;;;;;;;3.60;2.10;;;15.00;66.40;;;;;;4998405;28;20054;-80
2022/09/20 01:47:28;;;;;;;3.47;2.00;;;14.90;66.80;;;;;;4998298;28;20049;-80
2022/09/20 01:50:26;;;;;;;4.35;2.08;;;14.90;66.70;;;;;;5012659;28;20057;-81
2022/09/20 01:53:36;;;;;;;3.47;1.98;;;14.90;66.50;;;;;;4984053;28;20046;-81
2022/09/20 01:56:40;;;;;;;3.55;2.15;;;14.90;66.60;;;;;;4957106;29;20576;-81
2022/09/20 01:59:35;;;;;;;2.47;2.00;;;14.90;66.70;;;;;;4948791;28;20047;-80
2022/09/20 02:02:06;;;;;;;2.05;1.83;;;14.90;66.70;;;;;;4998086;28;20019;-81
2022/09/20 02:05:03;;;;;;;3.05;2.10;;;14.90;66.60;;;;;;4997572;28;20030;-81
2022/09/20 02:07:47;;;;;;;1.83;1.55;;;14.80;66.60;;;;;;4997390;28;20041;-81
2022/09/20 02:10:47;;;;;;;2.25;1.85;;;14.80;66.60;;;;;;5018250;28;20029;-80
2022/09/20 02:13:30;;;;;;;2.17;1.92;;;14.80;66.60;;;;;;5017021;28;20090;-80
2022/09/20 02:16:15;;;;;;;2.75;1.63;;;14.80;66.60;;;;;;5017271;28;20018;-80
2022/09/20 02:19:06;;;;;;;2.00;1.67;;;14.80;66.60;;;;;;5004179;28;20037;-80
2022/09/20 02:21:54;;;;;;;2.45;2.03;;;14.70;66.40;;;;;;4997085;28;20048;-81
2022/09/20 02:24:37;;;;;;;2.72;1.80;;;14.70;66.50;;;;;;4997440;28;20046;-81
2022/09/20 02:27:27;;;;;;;2.50;1.77;;;14.70;66.50;;;;;;4997660;28;20080;-80
2022/09/20 02:29:53;;;;;;;4.97;2.10;;;14.60;66.40;;;;;;4997816;28;20777;-80
2022/09/20 02:32:46;;;;;;;4.50;1.90;;;14.60;66.50;;;;;;4997130;28;20026;-80
2022/09/20 02:35:12;;;;;;;2.33;1.80;;;14.60;66.40;;;;;;4996070;28;20568;-80
2022/09/20 02:38:04;;;;;;;3.35;1.90;;;14.50;66.30;;;;;;4997169;28;20026;-80
2022/09/20 02:40:30;;;;;;;6.40;2.63;;;14.50;66.50;;;;;;5011267;28;20127;-80
2022/09/20 02:43:15;;;;;;;2.65;1.85;;;14.50;66.50;;;;;;5016020;28;20056;-80
2022/09/20 02:45:49;;;;;;;3.00;2.00;;;14.50;66.60;;;;;;5006286;28;20120;-80
2022/09/20 02:48:20;;;;;;;4.32;1.95;;;14.40;66.40;;;;;;4998772;28;20061;-80
2022/09/20 02:50:57;;;;;;;3.25;2.17;;;14.40;66.40;;;;;;4982423;28;20027;-80
2022/09/20 02:54:00;;;;;;;4.05;2.35;;;14.40;66.40;;;;;;4998756;28;20093;-80
2022/09/20 02:56:49;;;;;;;2.75;2.03;;;14.40;66.40;;;;;;5016963;28;20017;-80
2022/09/20 02:59:41;;;;;;;3.15;1.55;;;14.30;66.50;;;;;;5000683;28;20117;-80
2022/09/20 03:02:50;;;;;;;6.30;2.47;;;14.30;66.30;;;;;;4989636;28;20038;-80
2022/09/20 03:05:36;;;;;;;3.13;2.03;;;14.30;66.70;;;;;;4964798;28;20049;-80
2022/09/20 03:08:11;;;;;;;3.47;2.20;;;14.30;66.60;;;;;;4997062;28;20478;-80
2022/09/20 03:10:46;;;;;;;2.00;1.80;;;14.30;66.30;;;;;;4998882;28;20030;-80
2022/09/20 03:13:47;;;;;;;2.45;1.98;;;14.30;66.40;;;;;;4996563;28;20034;-80
2022/09/20 03:16:36;;;;;;;3.40;2.30;;;14.30;66.50;;;;;;5011622;28;20022;-80
2022/09/20 03:19:18;;;;;;;2.10;1.90;;;14.30;66.40;;;;;;4996505;28;20053;-80
2022/09/20 03:21:49;;;;;;;2.95;1.88;;;14.30;66.40;;;;;;4996269;28;20054;-80
2022/09/20 03:24:38;;;;;;;2.88;1.90;;;14.30;66.50;;;;;;5011416;28;20454;-80
2022/09/20 03:27:10;;;;;;;4.65;2.05;;;14.20;66.60;;;;;;4995127;28;20034;-80
2022/09/20 03:30:05;;;;;;;2.30;2.00;;;14.20;66.70;;;;;;4996138;28;20054;-79
2022/09/20 03:32:49;;;;;;;3.22;2.15;;;14.20;66.80;;;;;;4996300;28;20035;-80
2022/09/20 03:35:52;;;;;;;3.47;2.53;;;14.20;66.70;;;;;;5011346;28;20435;-80
2022/09/20 03:38:35;;;;;;;3.63;2.53;;;14.10;66.80;;;;;;5016364;28;20066;-80
2022/09/20 03:41:43;;;;;;;2.00;1.65;;;14.10;66.90;;;;;;5025513;28;20022;-80
2022/09/20 03:45:02;;;;;;;2.60;1.92;;;14.00;67.20;;;;;;4995097;28;20062;-80
2022/09/20 03:47:41;;;;;;;2.45;2.22;;;14.00;67.20;;;;;;4955216;29;20162;-80
2022/09/20 03:50:10;;;;;;;4.82;2.28;;;14.00;67.10;;;;;;4954389;29;20035;-80
2022/09/20 03:53:08;;;;;;;3.00;2.47;;;14.00;67.20;;;;;;4997076;28;20044;-80
2022/09/20 03:56:03;;;;;;;3.13;2.13;;;13.90;67.30;;;;;;4978819;28;20069;-81
2022/09/20 03:59:12;;;;;;;2.22;1.92;;;13.80;67.50;;;;;;4994926;28;20141;-80
2022/09/20 04:01:54;;;;;;;2.47;1.98;;;13.80;67.40;;;;;;5006988;28;20111;-80
2022/09/20 04:04:37;;;;;;;3.83;2.40;;;13.80;67.50;;;;;;5019345;28;20025;-80
2022/09/20 04:07:38;;;;;;;2.25;1.90;;;13.80;67.50;;;;;;5019623;28;20050;-80
2022/09/20 04:10:19;;;;;;;2.47;2.13;;;13.70;67.60;;;;;;4988067;28;20416;-79
2022/09/20 04:13:07;;;;;;;2.25;1.80;;;13.70;67.40;;;;;;5001687;28;20512;-80
2022/09/20 04:15:43;;;;;;;3.67;2.45;;;13.70;67.50;;;;;;5013478;28;20027;-81
2022/09/20 04:18:46;;;;;;;2.30;2.00;;;13.70;67.50;;;;;;5018279;28;20048;-79
2022/09/20 04:21:36;;;;;;;5.13;2.55;;;13.60;67.70;;;;;;4999629;28;20056;-81
2022/09/20 04:24:32;;;;;;;3.25;2.00;;;13.60;67.90;;;;;;5000073;28;20041;-79
2022/09/20 04:27:18;;;;;;;2.83;2.33;;;13.60;68.00;;;;;;4981375;28;20042;-80
2022/09/20 04:30:12;;;;;;;3.55;2.35;;;13.50;68.00;;;;;;5015298;28;20022;-83
2022/09/20 04:32:46;;;;;;;5.85;2.53;;;13.50;68.00;;;;;;4991690;28;20038;-76
2022/09/20 04:38:04;;;;;;;2.50;2.10;;;13.50;67.80;;;;;;5005127;28;20045;-78
2022/09/20 04:40:30;;;;;;;3.67;2.45;;;13.40;68.00;;;;;;5009695;28;20504;-77
2022/09/20 04:43:40;;;;;;;2.90;2.17;;;13.40;68.00;;;;;;5007910;28;20057;-77
2022/09/20 04:46:40;;;;;;;5.00;2.40;;;13.40;68.40;;;;;;5031988;28;20560;-78
2022/09/20 04:49:16;;;;;;;3.42;2.42;;;13.30;68.30;;;;;;4997065;28;20072;-85
2022/09/20 04:52:02;;;;;;;4.47;2.50;;;13.30;68.30;;;;;;5012684;28;20049;-78
2022/09/20 04:54:50;;;;;;;5.85;2.45;;;13.30;68.10;;;;;;4998654;28;20101;-80
2022/09/20 04:57:44;;;;;;;2.28;2.08;;;13.30;68.00;;;;;;4997207;28;20032;-78
2022/09/20 05:00:19;;;;;;;4.35;2.45;;;13.30;68.10;;;;;;4997401;28;20018;-79
2022/09/20 05:03:29;;;;;;;3.85;3.17;;;13.30;68.20;;;;;;5028491;28;20080;-78
2022/09/20 05:06:19;;;;;;;3.40;2.40;;;13.20;68.30;;;;;;4996245;28;20374;-77
2022/09/20 05:09:12;;;;;;;3.63;2.67;;;13.20;68.30;;;;;;5026178;28;20033;-77
2022/09/20 05:12:11;;;;;;;2.95;2.65;;;13.20;68.10;;;;;;5006482;28;20030;-76
2022/09/20 05:14:49;;;;;;;5.97;2.47;;;13.20;68.00;;;;;;5012984;28;20117;-77
2022/09/20 05:17:43;;;;;;;4.63;2.90;;;13.20;68.00;;;;;;5013965;28;20138;-77
2022/09/20 05:20:15;;;;;;;3.42;2.88;;;13.10;68.20;;;;;;5011365;28;20026;-77
2022/09/20 05:23:11;;;;;;;5.00;2.95;;;13.10;68.50;;;;;;5018037;28;20029;-77
2022/09/20 05:26:02;;;;;;;3.47;2.72;;;13.10;68.50;;;;;;5000585;28;20058;-77
2022/09/20 05:28:48;;;;;;;5.00;2.28;;;13.10;68.60;;;;;;5004088;28;20030;-76
2022/09/20 05:31:36;;;;;;;4.38;2.88;;;13.00;68.60;;;;;;5032625;28;20029;-76
2022/09/20 05:34:28;;;;;;;3.10;2.30;;;13.00;68.60;;;;;;5004620;28;20026;-76
2022/09/20 05:37:34;;;;;;;6.47;3.13;;;13.00;68.70;;;;;;5006195;28;20030;-76
2022/09/20 05:40:10;;;;;;;4.75;2.65;;;13.00;68.60;;;;;;5000646;28;20486;-76
2022/09/20 05:42:48;;;;;;;6.10;2.92;;;13.00;68.50;;;;;;5013459;28;20030;-76
2022/09/20 05:45:23;;;;;;;4.80;2.90;;;13.00;68.60;;;;;;5021147;28;20050;-75
2022/09/20 05:47:58;;;;;;;3.38;2.38;;;13.00;68.70;;;;;;5021106;28;20165;-77
2022/09/20 05:50:36;;;;;;;5.45;2.58;;;13.00;68.50;;;;;;5019274;28;20093;-78
2022/09/20 05:53:36;;;;;;;3.30;2.65;;;13.00;68.60;;;;;;5005894;28;20031;-77
2022/09/20 05:56:23;;;;;;;6.15;2.75;;;13.00;68.50;;;;;;5022769;28;20059;-77
2022/09/20 05:59:29;;;;;;;5.93;2.90;;;13.00;68.60;;;;;;5014531;28;20033;-76
2022/09/20 06:02:07;;;;;;;4.20;2.80;;;13.00;68.60;;;;;;4998622;28;20022;-76
2022/09/20 06:05:02;;;;;;;3.67;2.63;;;13.00;68.70;;;;;;5021849;28;20022;-76
2022/09/20 06:08:02;;;;;;;4.05;3.13;;;13.00;68.70;;;;;;5014327;28;20032;-76
2022/09/20 06:10:46;;;;;;;4.90;2.90;;;13.00;68.60;;;;;;5011849;28;20072;-76
2022/09/20 06:13:29;;;;;;;5.75;3.08;;;13.00;68.60;;;;;;5016162;28;20034;-75
2022/09/20 06:16:06;;;;;;;4.00;3.00;;;13.00;68.70;;;;;;5014964;28;20489;-76
2022/09/20 06:18:39;;;;;;;9.35;3.60;;;13.00;68.70;;;;;;5014875;28;20330;-76
2022/09/20 06:21:35;;;;;;;4.80;2.83;;;13.00;68.90;;;;;;5013865;28;20026;-76
2022/09/20 06:24:20;;;;;;;4.63;3.10;;;13.00;69.00;;;;;;5023528;28;20026;-76
2022/09/20 06:26:49;;;;;;;5.32;3.42;;;13.00;69.00;;;;;;5010127;28;20551;-77
2022/09/20 06:29:20;;;;;;;6.85;3.70;;;12.90;69.20;;;;;;5015799;28;20116;-76
2022/09/20 06:31:46;;;;;;;6.53;3.47;;;13.00;69.20;;;;;;5004602;28;20026;-76
2022/09/20 06:34:14;;;;;;;4.60;3.75;;;12.90;69.30;;;;;;5016672;28;20030;-76
2022/09/20 06:42:25;;;;;;;5.97;3.58;;;12.90;69.90;;;;;;4997786;28;20084;-76
2022/09/20 06:44:50;;;;;;;6.13;3.42;;;13.00;69.80;;;;;;5006903;28;20085;-76
2022/09/20 06:47:17;;;;;;;6.75;4.00;;;13.00;69.70;;;;;;5007216;28;20062;-75
2022/09/20 06:49:45;;;;;;;6.18;4.22;;;13.10;69.70;;;;;;4976566;28;20486;-76
2022/09/20 06:52:16;;;;;;;4.40;3.60;;;13.10;69.60;;;;;;4976403;28;20034;-77
2022/09/20 06:54:46;;;;;;;8.20;4.55;;;13.20;69.60;;;;;;4991322;28;20042;-76
2022/09/20 06:57:14;;;;;;;;;;;13.20;69.70;;;;;;5028220;28;20569;-77
2022/09/20 06:59:40;;;;;;;24.33;13.13;;;13.30;69.90;;;;;;4981989;28;19910;-76
2022/09/20 07:02:07;;;;;;;24.67;12.68;;;13.30;69.80;;;;;;4992109;28;20442;-76
2022/09/20 07:04:33;;;;;;;18.30;11.63;;;13.30;69.70;;;;;;4977356;28;20042;-76
2022/09/20 07:07:04;;;;;;;17.98;10.10;;;13.30;70.00;;;;;;4977386;28;20023;-76
2022/09/20 07:09:30;;;;;;;13.80;8.68;;;13.30;70.20;;;;;;4977822;28;20041;-76
2022/09/20 07:11:57;;;;;;;17.15;8.82;;;13.40;70.00;;;;;;4995249;28;20027;-76
2022/09/20 07:14:25;;;;;;;10.52;7.28;;;13.50;69.90;;;;;;4978427;28;20054;-76
2022/09/20 07:16:51;;;;;;;8.20;4.68;;;13.60;69.60;;;;;;4977229;28;20023;-77
2022/09/20 07:19:17;;;;;;;9.88;3.90;;;13.80;69.20;;;;;;4977485;28;20360;-77
2022/09/20 07:21:43;;;;;;;4.70;3.70;;;14.50;68.10;;;;;;4977333;28;20105;-77
2022/09/20 07:24:08;;;;;;;5.93;3.80;;;15.80;65.00;;;;;;4991554;28;20085;-77
2022/09/20 07:26:34;;;;;;;7.05;3.78;;;17.30;60.70;;;;;;5008374;28;20027;-77
2022/09/20 07:29:00;;;;;;;7.47;3.90;;;18.90;56.00;;;;;;4977081;28;20031;-77
2022/09/20 07:31:28;;;;;;;4.97;3.47;;;20.40;52.10;;;;;;4976975;28;20046;-77
2022/09/20 07:33:54;;;;;;;6.55;3.00;;;21.60;49.20;;;;;;4977302;28;20050;-77
2022/09/20 07:36:20;;;;;;;3.13;2.67;;;22.40;47.00;;;;;;4992021;28;20498;-77
2022/09/20 07:38:50;;;;;;;6.35;2.53;;;22.80;45.70;;;;;;4976568;28;20089;-77
2022/09/20 07:41:17;;;;;;;5.95;2.45;;;23.00;45.20;;;;;;4977085;28;20082;-78
2022/09/20 07:43:44;;;;;;;4.15;2.17;;;22.40;46.80;;;;;;4982424;28;20065;-77
2022/09/20 07:46:12;;;;;;;2.28;1.70;;;21.20;48.30;;;;;;4994862;28;20033;-78
2022/09/20 07:48:39;;;;;;;3.20;1.42;;;19.90;51.50;;;;;;4996380;28;20027;-77
2022/09/20 07:51:10;;;;;;;2.58;1.70;;;18.80;54.00;;;;;;4996629;28;20037;-77
2022/09/20 07:53:36;;;;;;;4.03;1.27;;;18.00;56.10;;;;;;4996076;28;20034;-77
2022/09/20 07:56:02;;;;;;;1.70;1.13;;;17.40;58.20;;;;;;5003542;28;20026;-77
2022/09/20 07:58:28;;;;;;;7.20;1.23;;;16.90;59.70;;;;;;4998261;28;20044;-77
2022/09/20 08:00:57;;;;;;;2.30;1.00;;;16.70;60.50;;;;;;4999058;28;20027;-78
2022/09/20 08:03:24;;;;;;;1.83;1.13;;;16.50;61.10;;;;;;4996142;28;20041;-76
2022/09/20 08:05:50;;;;;;;2.25;1.00;;;16.50;61.50;;;;;;4996048;28;20026;-77
2022/09/20 08:08:17;;;;;;;3.13;0.98;;;16.60;61.20;;;;;;4979008;28;20034;-77
2022/09/20 08:10:46;;;;;;;1.95;1.08;;;16.80;61.20;;;;;;5019989;28;20018;-77
2022/09/20 08:13:13;;;;;;;2.72;1.00;;;16.80;60.00;;;;;;5015196;28;20429;-77
2022/09/20 08:15:39;;;;;;;4.75;0.98;;;16.80;61.10;;;;;;5015625;28;20084;-76
2022/09/20 08:18:10;;;;;;;1.40;0.63;;;16.60;60.00;;;;;;4996410;28;20065;-77
2022/09/20 08:20:39;;;;;;;3.45;0.82;;;16.60;60.90;;;;;;4996052;28;20026;-76
2022/09/20 08:23:05;;;;;;;5.28;1.10;;;16.50;60.90;;;;;;4995871;28;20026;-76
2022/09/20 08:25:32;;;;;;;2.10;0.82;;;16.50;59.40;;;;;;4996238;28;20030;-76
2022/09/20 08:27:57;;;;;;;2.50;0.98;;;16.50;59.90;;;;;;4994631;28;20068;-76
2022/09/20 08:30:23;;;;;;;3.00;0.70;;;16.50;58.10;;;;;;4996351;28;20034;-76
2022/09/20 08:32:49;;;;;;;5.20;1.00;;;16.50;58.50;;;;;;4996417;28;20031;-77
2022/09/20 08:35:16;;;;;;;2.65;0.80;;;16.60;59.30;;;;;;4995820;28;20022;-77
2022/09/20 08:37:45;;;;;;;3.78;0.82;;;16.60;59.40;;;;;;5010956;28;20405;-76
2022/09/20 08:40:14;;;;;;;1.45;0.70;;;16.70;59.80;;;;;;4995858;28;20018;-77
2022/09/20 08:42:43;;;;;;;2.23;0.80;;;16.70;60.00;;;;;;4996231;28;20042;-76
2022/09/20 08:45:21;;;;;;;1.50;0.80;;;16.70;59.80;;;;;;4995650;28;20289;-76
2022/09/20 08:48:11;;;;;;;1.65;0.65;;;16.70;59.50;;;;;;5011151;28;20045;-77
2022/09/20 08:50:37;;;;;;;3.33;0.90;;;16.70;60.20;;;;;;4997887;28;20030;-77
2022/09/20 08:53:03;;;;;;;1.00;0.70;;;16.80;59.70;;;;;;4999372;28;20520;-76
2022/09/20 08:55:33;;;;;;;1.52;0.73;;;16.80;58.70;;;;;;5002731;28;20025;-76
2022/09/20 08:57:59;;;;;;;2.50;1.05;;;17.00;57.80;;;;;;5019016;28;20545;-76
2022/09/20 09:00:35;;;;;;;2.00;0.80;;;17.20;56.90;;;;;;5018850;28;20493;-77
2022/09/20 09:03:06;;;;;;;1.63;0.40;;;17.70;55.90;;;;;;5018755;28;20076;-76
2022/09/20 09:05:37;;;;;;;1.77;0.60;;;18.30;54.50;;;;;;4983892;28;20038;-77
2022/09/20 09:08:17;;;;;;;3.03;0.80;;;19.20;53.00;;;;;;4999004;28;20033;-77
2022/09/20 09:10:52;;;;;;;1.15;0.65;;;19.90;51.20;;;;;;5007825;28;20120;-77
2022/09/20 09:13:24;;;;;;;2.65;0.80;;;20.40;50.30;;;;;;4984803;28;20120;-77
2022/09/20 09:15:56;;;;;;;5.43;0.77;;;20.30;50.30;;;;;;5014100;28;20081;-77
2022/09/20 09:18:31;;;;;;;1.92;1.02;;;19.80;51.30;;;;;;4998813;28;20034;-76
2022/09/20 09:20:58;;;;;;;1.77;0.80;;;19.30;51.50;;;;;;4998844;28;20046;-76
2022/09/20 09:23:26;;;;;;;1.10;0.70;;;18.90;52.90;;;;;;5013828;28;20027;-77
2022/09/20 09:25:54;;;;;;;1.23;0.63;;;18.70;53.40;;;;;;5003171;28;20393;-77
2022/09/20 09:28:25;;;;;;;1.00;0.60;;;18.50;54.20;;;;;;5018335;28;20033;-76
2022/09/20 09:30:51;;;;;;;3.60;0.82;;;18.30;54.20;;;;;;5000154;28;20026;-77
2022/09/20 09:33:25;;;;;;;1.20;0.55;;;18.30;54.00;;;;;;4998513;28;20034;-77
2022/09/20 09:36:15;;;;;;;0.98;0.52;;;18.30;53.90;;;;;;4996741;28;20042;-77
2022/09/20 09:38:44;;;;;;;1.77;0.70;;;18.30;54.50;;;;;;4989793;28;20030;-76
2022/09/20 09:41:28;;;;;;;5.65;0.70;;;18.20;54.80;;;;;;4998436;28;20022;-77
2022/09/20 09:44:17;;;;;;;0.95;0.70;;;18.30;55.40;;;;;;5013329;28;20541;-76
2022/09/20 09:46:43;;;;;;;1.75;0.95;;;18.30;54.50;;;;;;4998651;28;20030;-76
2022/09/20 09:49:22;;;;;;;1.77;0.82;;;18.30;54.60;;;;;;4998171;28;20042;-76
2022/09/20 09:52:10;;;;;;;0.90;0.47;;;18.30;54.40;;;;;;4996883;28;20034;-76
2022/09/20 09:54:41;;;;;;;2.30;1.02;;;18.30;54.10;;;;;;5013173;28;20296;-77
2022/09/20 09:57:21;;;;;;;1.92;0.70;;;18.40;54.70;;;;;;5023511;28;20492;-76
2022/09/20 10:00:11;;;;;;;1.27;0.70;;;18.40;54.00;;;;;;5013229;28;20034;-76
2022/09/20 10:02:46;;;;;;;2.65;0.95;;;18.50;54.20;;;;;;4998099;28;20153;-76
2022/09/20 10:05:33;;;;;;;1.33;0.70;;;18.70;52.50;;;;;;5012997;28;20445;-76
2022/09/20 10:08:15;;;;;;;1.70;0.65;;;18.90;53.60;;;;;;4998510;28;20035;-77
2022/09/20 10:11:03;;;;;;;1.75;0.55;;;19.10;52.50;;;;;;5016370;28;20029;-76
2022/09/20 10:13:45;;;;;;;1.17;0.60;;;19.20;51.80;;;;;;5017304;28;20034;-76
2022/09/20 10:16:49;;;;;;;1.40;1.08;;;19.10;50.50;;;;;;5000350;28;20029;-76
2022/09/20 10:19:39;;;;;;;0.90;0.50;;;19.20;50.50;;;;;;5012728;28;20065;-77
2022/09/20 10:22:08;;;;;;;2.08;0.60;;;19.20;49.40;;;;;;4997719;28;20025;-77
2022/09/20 10:25:30;;;;;;;1.73;0.75;;;19.20;50.10;;;;;;5012975;28;20042;-77
2022/09/20 10:28:08;;;;;;;1.90;0.57;;;19.30;49.90;;;;;;5003230;28;20026;-77
2022/09/20 10:30:55;;;;;;;3.85;0.70;;;19.70;48.40;;;;;;4993773;28;20034;-76
2022/09/20 10:33:43;;;;;;;0.98;0.40;;;20.00;48.70;;;;;;4998469;28;20033;-77
2022/09/20 10:36:16;;;;;;;1.15;0.60;;;20.00;47.30;;;;;;4999357;28;20051;-77
2022/09/20 10:39:10;;;;;;;1.20;0.60;;;20.20;46.80;;;;;;5012679;28;20034;-77
2022/09/20 10:45:02;;;;;;;2.53;0.73;;;20.30;47.30;;;;;;4997153;28;20144;-77
2022/09/20 10:47:39;;;;;;;1.63;0.60;;;20.20;46.40;;;;;;4989915;28;20044;-77
2022/09/20 10:50:20;;;;;;;1.33;0.60;;;20.00;47.60;;;;;;5017343;28;20041;-77
2022/09/20 10:53:10;;;;;;;1.63;0.70;;;19.90;47.50;;;;;;5018287;28;20030;-76
2022/09/20 10:55:58;;;;;;;1.15;0.70;;;19.80;48.10;;;;;;5016651;28;20026;-78
2022/09/20 10:58:48;;;;;;;1.50;0.70;;;19.70;47.30;;;;;;5008739;28;20023;-77
2022/09/20 11:01:45;;;;;;;1.23;0.60;;;19.60;47.70;;;;;;4996909;28;20533;-76
2022/09/20 11:04:53;;;;;;;1.15;0.38;;;19.60;48.20;;;;;;4983125;28;20060;-77
2022/09/20 11:07:33;;;;;;;2.47;0.52;;;19.60;47.30;;;;;;4998768;28;20030;-77
2022/09/20 11:10:12;;;;;;;1.20;0.65;;;19.50;47.00;;;;;;4982401;28;20034;-77
2022/09/20 11:12:46;;;;;;;1.33;0.73;;;19.70;48.10;;;;;;4996436;28;20052;-76
2022/09/20 11:15:28;;;;;;;2.28;0.60;;;19.70;47.70;;;;;;4996717;28;20038;-77
2022/09/20 11:18:03;;;;;;;1.13;0.50;;;19.60;47.90;;;;;;4996464;28;20041;-77
2022/09/20 11:20:34;;;;;;;1.05;0.55;;;19.50;48.40;;;;;;5011748;28;20050;-77
2022/09/20 11:23:16;;;;;;;1.63;0.50;;;19.40;49.10;;;;;;4995630;28;20030;-76
2022/09/20 11:25:59;;;;;;;1.02;0.60;;;19.30;48.80;;;;;;4996605;28;20096;-76
2022/09/20 11:28:42;;;;;;;2.65;0.80;;;19.20;48.70;;;;;;4997117;28;20038;-76
2022/09/20 11:31:29;;;;;;;1.88;0.52;;;19.20;48.80;;;;;;4996575;28;20033;-77
2022/09/20 11:34:29;;;;;;;1.10;0.60;;;19.20;48.80;;;;;;4996325;28;20022;-77
2022/09/20 11:36:59;;;;;;;2.00;0.88;;;19.30;49.20;;;;;;4996887;28;20027;-76
2022/09/20 11:39:46;;;;;;;1.38;0.60;;;19.30;49.00;;;;;;4995044;28;20038;-77
2022/09/20 11:42:29;;;;;;;2.30;0.90;;;19.30;49.30;;;;;;5024134;28;20059;-77
2022/09/20 11:44:55;;;;;;;1.60;0.70;;;19.40;49.50;;;;;;5015836;28;20053;-77
2022/09/20 11:47:41;;;;;;;2.45;1.00;;;19.50;48.70;;;;;;5015786;28;20061;-77
2022/09/20 11:50:40;;;;;;;1.40;0.80;;;19.70;48.90;;;;;;5008719;28;20026;-77
2022/09/20 11:53:41;;;;;;;1.88;0.68;;;19.80;46.90;;;;;;4995959;28;20109;-77
2022/09/20 11:56:19;;;;;;;2.35;0.73;;;19.90;47.00;;;;;;4966071;28;20049;-77
2022/09/20 11:58:56;;;;;;;1.10;0.60;;;20.00;46.50;;;;;;5011066;28;20042;-77
2022/09/20 12:01:27;;;;;;;4.30;0.70;;;20.10;46.80;;;;;;4996560;28;20022;-77
2022/09/20 12:03:57;;;;;;;1.98;0.82;;;20.20;47.80;;;;;;4995958;28;20096;-77
2022/09/20 12:06:25;;;;;;;2.28;0.70;;;20.30;48.10;;;;;;5005748;28;20021;-77
2022/09/20 12:08:52;;;;;;;5.43;1.40;;;20.40;48.30;;;;;;5015634;28;20038;-77
2022/09/20 12:11:37;;;;;;;1.92;1.00;;;20.40;48.70;;;;;;5012374;28;20030;-77
2022/09/20 12:14:22;;;;;;;2.67;1.10;;;20.50;48.70;;;;;;4995859;28;20433;-77
2022/09/20 12:16:49;;;;;;;3.80;0.98;;;20.50;48.80;;;;;;4995894;28;20030;-77
2022/09/20 12:19:20;;;;;;;2.05;1.20;;;20.50;49.70;;;;;;5015405;28;20113;-77
2022/09/20 12:22:06;;;;;;;2.45;1.27;;;20.50;50.20;;;;;;5015516;28;20076;-77
2022/09/20 12:24:39;;;;;;;2.70;1.20;;;20.50;50.00;;;;;;4970125;28;20053;-78
2022/09/20 12:27:25;;;;;;;2.28;1.17;;;20.60;50.80;;;;;;4999865;28;20025;-77
2022/09/20 12:29:50;;;;;;;2.30;1.20;;;20.60;51.10;;;;;;5000405;28;20038;-77
2022/09/20 12:32:42;;;;;;;2.65;1.15;;;20.60;50.70;;;;;;4999593;28;20029;-77
2022/09/20 12:35:37;;;;;;;2.03;1.15;;;20.60;50.60;;;;;;4999611;28;20077;-78
2022/09/20 12:38:37;;;;;;;1.88;1.05;;;20.70;50.70;;;;;;5000026;28;20022;-77
2022/09/20 12:41:15;;;;;;;2.60;1.13;;;20.50;49.70;;;;;;4960938;28;20061;-77
2022/09/20 12:44:25;;;;;;;1.73;0.77;;;20.50;50.60;;;;;;4997526;28;20045;-77
2022/09/20 12:46:58;;;;;;;2.30;1.10;;;20.50;50.80;;;;;;4984100;28;20039;-78
2022/09/20 12:55:39;;;;;;;2.58;1.35;;;20.90;50.90;;;;;;4999734;28;20038;-77
2022/09/20 12:58:14;;;;;;;3.17;1.20;;;21.00;50.00;;;;;;5014220;28;20397;-77
2022/09/20 13:00:46;;;;;;;2.13;1.05;;;21.00;50.90;;;;;;4999787;28;20082;-77
2022/09/20 13:03:17;;;;;;;5.85;1.00;;;21.10;50.80;;;;;;5014173;28;20026;-77
2022/09/20 13:05:51;;;;;;;1.27;0.90;;;21.10;50.50;;;;;;5014565;28;20042;-78
2022/09/20 13:08:22;;;;;;;3.53;1.13;;;21.00;51.00;;;;;;4997764;28;20062;-77
2022/09/20 13:11:16;;;;;;;2.05;0.90;;;20.90;50.80;;;;;;5008689;28;20034;-77
2022/09/20 13:13:45;;;;;;;1.88;1.08;;;20.80;51.60;;;;;;5006810;28;20111;-78
2022/09/20 13:16:37;;;;;;;4.03;1.40;;;20.80;51.70;;;;;;4999068;28;20050;-77
2022/09/20 13:19:08;;;;;;;1.90;1.00;;;20.80;51.90;;;;;;5013805;28;20137;-78
2022/09/20 13:21:39;;;;;;;1.42;0.80;;;20.70;51.90;;;;;;5013919;28;20037;-77
2022/09/20 13:24:06;;;;;;;1.80;1.00;;;20.80;52.50;;;;;;5016050;28;20049;-77
2022/09/20 13:26:39;;;;;;;2.40;1.30;;;20.90;52.90;;;;;;5018419;28;20076;-77
2022/09/20 13:29:09;;;;;;;1.95;1.00;;;21.00;52.20;;;;;;5007945;28;20398;-77
2022/09/20 13:31:35;;;;;;;2.78;1.30;;;21.10;51.80;;;;;;4998605;28;20040;-78
2022/09/20 13:34:20;;;;;;;1.73;0.95;;;21.10;52.00;;;;;;4998401;28;20486;-77
2022/09/20 13:36:47;;;;;;;2.42;1.40;;;21.20;52.40;;;;;;4998352;28;20030;-77
2022/09/20 13:39:36;;;;;;;2.10;1.20;;;21.20;52.10;;;;;;4998516;28;20026;-77
2022/09/20 13:42:11;;;;;;;3.60;1.10;;;21.20;52.20;;;;;;4998344;28;20023;-77
2022/09/20 13:44:37;;;;;;;1.50;1.30;;;21.20;53.00;;;;;;4997221;28;20054;-77
2022/09/20 13:47:27;;;;;;;2.25;1.33;;;21.30;52.40;;;;;;4998308;28;20034;-77
2022/09/20 13:49:59;;;;;;;1.85;0.95;;;21.20;52.70;;;;;;4999133;28;20030;-77
2022/09/20 13:52:27;;;;;;;2.42;1.00;;;21.20;52.80;;;;;;4996880;28;20561;-77
2022/09/20 13:54:54;;;;;;;3.17;1.42;;;21.10;53.00;;;;;;5013268;28;20026;-77
2022/09/20 13:57:29;;;;;;;2.65;1.60;;;21.10;53.20;;;;;;4998123;28;20110;-77
2022/09/20 13:59:56;;;;;;;1.48;1.00;;;21.20;53.10;;;;;;4998402;28;20027;-77
2022/09/20 14:02:26;;;;;;;2.65;1.40;;;21.20;53.10;;;;;;4996621;28;20034;-77
2022/09/20 14:04:58;;;;;;;2.47;1.25;;;21.30;53.50;;;;;;4997987;28;20050;-77